sensor_id;sensor_type;location;lat;lon;timestamp;P1;durP1;ratioP1;P2;durP2;ratioP2
8281;SDS011;25606;42.686;23.136;2022-12-26T00:01:59;5.47;;;3.00;;
8281;SDS011;25606;42.686;23.136;2022-12-26T00:04:27;4.03;;;2.90;;
8281;SDS011;25606;42.686;23.136;2022-12-26T00:06:55;4.73;;;2.17;;
8281;SDS011;25606;42.686;23.136;2022-12-26T00:09:22;4.10;;;1.87;;
8281;SDS011;25606;42.686;23.136;2022-12-26T00:11:51;4.13;;;2.23;;
8281;SDS011;25606;42.686;23.136;2022-12-26T00:14:18;1.90;;;1.70;;
8281;SDS011;25606;42.686;23.136;2022-12-26T00:16:45;1.80;;;1.43;;
8281;SDS011;25606;42.686;23.136;2022-12-26T00:19:13;2.50;;;1.40;;
8281;SDS011;25606;42.686;23.136;2022-12-26T00:21:40;1.87;;;1.67;;
8281;SDS011;25606;42.686;23.136;2022-12-26T00:24:08;2.87;;;1.67;;
8281;SDS011;25606;42.686;23.136;2022-12-26T00:26:36;2.43;;;1.53;;
8281;SDS011;25606;42.686;23.136;2022-12-26T00:29:04;2.43;;;1.70;;
8281;SDS011;25606;42.686;23.136;2022-12-26T00:31:33;4.63;;;1.90;;
8281;SDS011;25606;42.686;23.136;2022-12-26T00:34:00;3.70;;;1.90;;
8281;SDS011;25606;42.686;23.136;2022-12-26T00:36:29;3.33;;;2.20;;
8281;SDS011;25606;42.686;23.136;2022-12-26T00:38:57;3.43;;;2.10;;
8281;SDS011;25606;42.686;23.136;2022-12-26T00:41:24;2.97;;;2.40;;
8281;SDS011;25606;42.686;23.136;2022-12-26T00:43:51;3.30;;;2.40;;
8281;SDS011;25606;42.686;23.136;2022-12-26T00:46:21;5.00;;;2.93;;
8281;SDS011;25606;42.686;23.136;2022-12-26T00:48:49;4.80;;;3.33;;
8281;SDS011;25606;42.686;23.136;2022-12-26T00:51:16;6.70;;;3.40;;
8281;SDS011;25606;42.686;23.136;2022-12-26T00:53:43;7.40;;;3.50;;
8281;SDS011;25606;42.686;23.136;2022-12-26T00:56:11;6.77;;;3.83;;
8281;SDS011;25606;42.686;23.136;2022-12-26T00:58:39;5.50;;;3.10;;
8281;SDS011;25606;42.686;23.136;2022-12-26T01:01:08;5.37;;;3.90;;
8281;SDS011;25606;42.686;23.136;2022-12-26T01:03:37;6.00;;;4.20;;
8281;SDS011;25606;42.686;23.136;2022-12-26T01:06:05;5.90;;;3.87;;
8281;SDS011;25606;42.686;23.136;2022-12-26T01:08:32;5.17;;;3.53;;
8281;SDS011;25606;42.686;23.136;2022-12-26T01:11:03;6.97;;;3.70;;
8281;SDS011;25606;42.686;23.136;2022-12-26T01:13:31;8.03;;;4.10;;
8281;SDS011;25606;42.686;23.136;2022-12-26T01:15:58;6.00;;;3.87;;
8281;SDS011;25606;42.686;23.136;2022-12-26T01:18:26;6.80;;;3.40;;
8281;SDS011;25606;42.686;23.136;2022-12-26T01:20:58;6.07;;;3.63;;
8281;SDS011;25606;42.686;23.136;2022-12-26T01:23:25;5.77;;;3.67;;
8281;SDS011;25606;42.686;23.136;2022-12-26T01:25:53;6.40;;;3.23;;
8281;SDS011;25606;42.686;23.136;2022-12-26T01:28:20;4.87;;;3.33;;
8281;SDS011;25606;42.686;23.136;2022-12-26T01:30:47;5.73;;;2.70;;
8281;SDS011;25606;42.686;23.136;2022-12-26T01:33:15;7.13;;;3.23;;
8281;SDS011;25606;42.686;23.136;2022-12-26T01:35:49;4.10;;;3.17;;
8281;SDS011;25606;42.686;23.136;2022-12-26T01:38:18;5.00;;;2.90;;
8281;SDS011;25606;42.686;23.136;2022-12-26T01:40:46;4.50;;;3.10;;
8281;SDS011;25606;42.686;23.136;2022-12-26T01:43:45;5.90;;;3.80;;
8281;SDS011;25606;42.686;23.136;2022-12-26T01:46:13;5.07;;;3.03;;
8281;SDS011;25606;42.686;23.136;2022-12-26T01:48:40;5.83;;;2.80;;
8281;SDS011;25606;42.686;23.136;2022-12-26T01:51:08;4.80;;;3.20;;
8281;SDS011;25606;42.686;23.136;2022-12-26T01:53:37;5.67;;;3.27;;
8281;SDS011;25606;42.686;23.136;2022-12-26T01:56:06;4.07;;;3.40;;
8281;SDS011;25606;42.686;23.136;2022-12-26T01:58:36;5.00;;;3.33;;
8281;SDS011;25606;42.686;23.136;2022-12-26T02:01:04;4.57;;;2.57;;
8281;SDS011;25606;42.686;23.136;2022-12-26T02:03:33;4.80;;;3.23;;
8281;SDS011;25606;42.686;23.136;2022-12-26T02:06:18;3.67;;;2.87;;
8281;SDS011;25606;42.686;23.136;2022-12-26T02:08:48;3.93;;;2.90;;
8281;SDS011;25606;42.686;23.136;2022-12-26T02:11:16;4.77;;;2.67;;
8281;SDS011;25606;42.686;23.136;2022-12-26T02:13:44;4.30;;;2.83;;
8281;SDS011;25606;42.686;23.136;2022-12-26T02:16:13;3.77;;;2.83;;
8281;SDS011;25606;42.686;23.136;2022-12-26T02:18:41;6.47;;;3.10;;
8281;SDS011;25606;42.686;23.136;2022-12-26T02:21:12;3.70;;;2.87;;
8281;SDS011;25606;42.686;23.136;2022-12-26T02:26:33;5.90;;;2.83;;
8281;SDS011;25606;42.686;23.136;2022-12-26T02:31:54;3.47;;;2.77;;
8281;SDS011;25606;42.686;23.136;2022-12-26T02:34:26;4.23;;;2.57;;
8281;SDS011;25606;42.686;23.136;2022-12-26T02:37:02;6.03;;;3.10;;
8281;SDS011;25606;42.686;23.136;2022-12-26T02:39:37;5.57;;;3.03;;
8281;SDS011;25606;42.686;23.136;2022-12-26T02:42:10;7.13;;;3.33;;
8281;SDS011;25606;42.686;23.136;2022-12-26T02:44:42;4.43;;;3.17;;
8281;SDS011;25606;42.686;23.136;2022-12-26T02:47:32;5.37;;;3.30;;
8281;SDS011;25606;42.686;23.136;2022-12-26T02:50:03;5.73;;;3.47;;
8281;SDS011;25606;42.686;23.136;2022-12-26T02:52:55;5.77;;;3.23;;
8281;SDS011;25606;42.686;23.136;2022-12-26T02:55:46;7.23;;;3.63;;
8281;SDS011;25606;42.686;23.136;2022-12-26T02:58:33;6.60;;;3.40;;
8281;SDS011;25606;42.686;23.136;2022-12-26T03:01:22;6.00;;;3.13;;
8281;SDS011;25606;42.686;23.136;2022-12-26T03:04:12;4.23;;;3.10;;
8281;SDS011;25606;42.686;23.136;2022-12-26T03:06:58;4.80;;;3.13;;
8281;SDS011;25606;42.686;23.136;2022-12-26T03:09:44;5.37;;;3.13;;
8281;SDS011;25606;42.686;23.136;2022-12-26T03:12:32;4.93;;;3.30;;
8281;SDS011;25606;42.686;23.136;2022-12-26T03:15:18;5.10;;;3.53;;
8281;SDS011;25606;42.686;23.136;2022-12-26T03:17:47;6.07;;;4.10;;
8281;SDS011;25606;42.686;23.136;2022-12-26T03:20:16;5.40;;;3.90;;
8281;SDS011;25606;42.686;23.136;2022-12-26T03:22:45;6.43;;;3.80;;
8281;SDS011;25606;42.686;23.136;2022-12-26T03:25:14;4.87;;;3.30;;
8281;SDS011;25606;42.686;23.136;2022-12-26T03:28:01;7.60;;;3.73;;
8281;SDS011;25606;42.686;23.136;2022-12-26T03:30:28;5.23;;;3.63;;
8281;SDS011;25606;42.686;23.136;2022-12-26T03:33:13;5.57;;;3.60;;
8281;SDS011;25606;42.686;23.136;2022-12-26T03:35:55;4.87;;;3.30;;
8281;SDS011;25606;42.686;23.136;2022-12-26T03:38:23;4.60;;;3.40;;
8281;SDS011;25606;42.686;23.136;2022-12-26T03:40:54;8.07;;;3.57;;
8281;SDS011;25606;42.686;23.136;2022-12-26T03:47:04;5.67;;;3.70;;
8281;SDS011;25606;42.686;23.136;2022-12-26T03:49:52;6.13;;;3.37;;
8281;SDS011;25606;42.686;23.136;2022-12-26T03:52:41;5.80;;;3.23;;
8281;SDS011;25606;42.686;23.136;2022-12-26T03:55:31;4.13;;;2.93;;
8281;SDS011;25606;42.686;23.136;2022-12-26T03:58:18;7.70;;;3.77;;
8281;SDS011;25606;42.686;23.136;2022-12-26T04:01:07;5.97;;;3.87;;
8281;SDS011;25606;42.686;23.136;2022-12-26T04:03:53;7.20;;;3.70;;
8281;SDS011;25606;42.686;23.136;2022-12-26T04:06:40;5.30;;;2.93;;
8281;SDS011;25606;42.686;23.136;2022-12-26T04:09:29;4.50;;;3.13;;
8281;SDS011;25606;42.686;23.136;2022-12-26T04:12:16;4.20;;;2.77;;
8281;SDS011;25606;42.686;23.136;2022-12-26T04:15:02;4.87;;;2.70;;
8281;SDS011;25606;42.686;23.136;2022-12-26T04:17:50;3.13;;;2.43;;
8281;SDS011;25606;42.686;23.136;2022-12-26T04:20:38;2.30;;;2.10;;
8281;SDS011;25606;42.686;23.136;2022-12-26T04:23:08;4.40;;;2.30;;
8281;SDS011;25606;42.686;23.136;2022-12-26T04:25:57;3.57;;;2.10;;
8281;SDS011;25606;42.686;23.136;2022-12-26T04:28:44;4.87;;;2.47;;
8281;SDS011;25606;42.686;23.136;2022-12-26T04:31:30;3.97;;;2.53;;
8281;SDS011;25606;42.686;23.136;2022-12-26T04:34:18;2.70;;;2.40;;
8281;SDS011;25606;42.686;23.136;2022-12-26T04:37:06;6.60;;;2.40;;
8281;SDS011;25606;42.686;23.136;2022-12-26T04:39:53;3.77;;;2.83;;
8281;SDS011;25606;42.686;23.136;2022-12-26T04:42:40;6.23;;;2.40;;
8281;SDS011;25606;42.686;23.136;2022-12-26T04:45:27;2.77;;;2.27;;
8281;SDS011;25606;42.686;23.136;2022-12-26T04:47:54;5.10;;;2.50;;
8281;SDS011;25606;42.686;23.136;2022-12-26T04:50:47;3.77;;;2.40;;
8281;SDS011;25606;42.686;23.136;2022-12-26T04:53:15;3.77;;;2.67;;
8281;SDS011;25606;42.686;23.136;2022-12-26T04:55:42;5.67;;;2.57;;
8281;SDS011;25606;42.686;23.136;2022-12-26T04:58:11;3.63;;;2.60;;
8281;SDS011;25606;42.686;23.136;2022-12-26T05:00:38;4.07;;;2.70;;
8281;SDS011;25606;42.686;23.136;2022-12-26T05:03:12;6.93;;;2.60;;
8281;SDS011;25606;42.686;23.136;2022-12-26T05:06:07;3.80;;;2.70;;
8281;SDS011;25606;42.686;23.136;2022-12-26T05:08:52;3.40;;;2.50;;
8281;SDS011;25606;42.686;23.136;2022-12-26T05:11:37;5.70;;;2.70;;
8281;SDS011;25606;42.686;23.136;2022-12-26T05:14:06;4.73;;;2.70;;
8281;SDS011;25606;42.686;23.136;2022-12-26T05:16:33;4.40;;;2.50;;
8281;SDS011;25606;42.686;23.136;2022-12-26T05:19:18;4.97;;;2.50;;
8281;SDS011;25606;42.686;23.136;2022-12-26T05:22:03;6.07;;;3.00;;
8281;SDS011;25606;42.686;23.136;2022-12-26T05:24:48;4.53;;;2.80;;
8281;SDS011;25606;42.686;23.136;2022-12-26T05:27:34;5.73;;;2.60;;
8281;SDS011;25606;42.686;23.136;2022-12-26T05:30:21;6.20;;;3.27;;
8281;SDS011;25606;42.686;23.136;2022-12-26T05:32:49;6.53;;;2.90;;
8281;SDS011;25606;42.686;23.136;2022-12-26T05:35:34;4.47;;;2.93;;
8281;SDS011;25606;42.686;23.136;2022-12-26T05:38:01;6.77;;;2.50;;
8281;SDS011;25606;42.686;23.136;2022-12-26T05:40:29;2.90;;;2.60;;
8281;SDS011;25606;42.686;23.136;2022-12-26T05:42:56;3.50;;;2.53;;
8281;SDS011;25606;42.686;23.136;2022-12-26T05:45:25;3.17;;;2.57;;
8281;SDS011;25606;42.686;23.136;2022-12-26T05:47:56;6.60;;;2.87;;
8281;SDS011;25606;42.686;23.136;2022-12-26T05:50:23;4.17;;;2.60;;
8281;SDS011;25606;42.686;23.136;2022-12-26T05:52:50;3.77;;;2.70;;
8281;SDS011;25606;42.686;23.136;2022-12-26T05:55:18;3.73;;;2.40;;
8281;SDS011;25606;42.686;23.136;2022-12-26T05:57:45;3.27;;;2.37;;
8281;SDS011;25606;42.686;23.136;2022-12-26T06:00:13;5.47;;;2.90;;
8281;SDS011;25606;42.686;23.136;2022-12-26T06:02:42;5.47;;;2.90;;
8281;SDS011;25606;42.686;23.136;2022-12-26T06:05:09;6.03;;;2.50;;
8281;SDS011;25606;42.686;23.136;2022-12-26T06:07:36;4.07;;;2.23;;
8281;SDS011;25606;42.686;23.136;2022-12-26T06:10:04;4.10;;;2.93;;
8281;SDS011;25606;42.686;23.136;2022-12-26T06:12:32;5.87;;;2.83;;
8281;SDS011;25606;42.686;23.136;2022-12-26T06:14:59;3.33;;;2.70;;
8281;SDS011;25606;42.686;23.136;2022-12-26T06:17:27;3.60;;;2.23;;
8281;SDS011;25606;42.686;23.136;2022-12-26T06:19:55;2.70;;;1.97;;
8281;SDS011;25606;42.686;23.136;2022-12-26T06:22:23;3.10;;;2.33;;
8281;SDS011;25606;42.686;23.136;2022-12-26T06:24:50;3.53;;;2.30;;
8281;SDS011;25606;42.686;23.136;2022-12-26T06:27:17;3.13;;;2.43;;
8281;SDS011;25606;42.686;23.136;2022-12-26T06:29:45;6.50;;;3.70;;
8281;SDS011;25606;42.686;23.136;2022-12-26T06:32:12;5.17;;;3.33;;
8281;SDS011;25606;42.686;23.136;2022-12-26T06:34:40;3.10;;;2.80;;
8281;SDS011;25606;42.686;23.136;2022-12-26T06:37:08;4.17;;;2.53;;
8281;SDS011;25606;42.686;23.136;2022-12-26T06:39:36;5.53;;;2.87;;
8281;SDS011;25606;42.686;23.136;2022-12-26T06:42:03;4.47;;;3.13;;
8281;SDS011;25606;42.686;23.136;2022-12-26T06:44:30;4.43;;;2.80;;
8281;SDS011;25606;42.686;23.136;2022-12-26T06:46:58;2.83;;;2.63;;
8281;SDS011;25606;42.686;23.136;2022-12-26T06:49:25;6.73;;;3.27;;
8281;SDS011;25606;42.686;23.136;2022-12-26T06:51:53;4.03;;;3.00;;
8281;SDS011;25606;42.686;23.136;2022-12-26T06:54:21;3.73;;;3.20;;
8281;SDS011;25606;42.686;23.136;2022-12-26T06:56:49;5.57;;;2.90;;
8281;SDS011;25606;42.686;23.136;2022-12-26T06:59:16;3.60;;;2.93;;
8281;SDS011;25606;42.686;23.136;2022-12-26T07:01:43;6.80;;;6.20;;
8281;SDS011;25606;42.686;23.136;2022-12-26T07:04:11;4.27;;;3.10;;
8281;SDS011;25606;42.686;23.136;2022-12-26T07:06:39;4.90;;;3.57;;
8281;SDS011;25606;42.686;23.136;2022-12-26T07:09:07;6.60;;;4.13;;
8281;SDS011;25606;42.686;23.136;2022-12-26T07:11:39;5.47;;;4.50;;
8281;SDS011;25606;42.686;23.136;2022-12-26T07:14:06;7.33;;;5.07;;
8281;SDS011;25606;42.686;23.136;2022-12-26T07:16:34;7.63;;;4.43;;
8281;SDS011;25606;42.686;23.136;2022-12-26T07:19:02;6.27;;;5.33;;
8281;SDS011;25606;42.686;23.136;2022-12-26T07:21:29;9.13;;;5.70;;
8281;SDS011;25606;42.686;23.136;2022-12-26T07:23:56;8.47;;;5.40;;
8281;SDS011;25606;42.686;23.136;2022-12-26T07:26:24;7.67;;;5.20;;
8281;SDS011;25606;42.686;23.136;2022-12-26T07:28:53;7.30;;;5.90;;
8281;SDS011;25606;42.686;23.136;2022-12-26T07:31:21;8.63;;;5.70;;
8281;SDS011;25606;42.686;23.136;2022-12-26T07:33:50;8.97;;;6.13;;
8281;SDS011;25606;42.686;23.136;2022-12-26T07:36:18;11.30;;;6.30;;
8281;SDS011;25606;42.686;23.136;2022-12-26T07:38:45;9.73;;;6.30;;
8281;SDS011;25606;42.686;23.136;2022-12-26T07:41:13;12.03;;;8.03;;
8281;SDS011;25606;42.686;23.136;2022-12-26T07:43:59;8.03;;;5.97;;
8281;SDS011;25606;42.686;23.136;2022-12-26T07:46:26;8.57;;;5.87;;
8281;SDS011;25606;42.686;23.136;2022-12-26T07:48:54;6.90;;;5.77;;
8281;SDS011;25606;42.686;23.136;2022-12-26T07:51:21;10.63;;;6.33;;
8281;SDS011;25606;42.686;23.136;2022-12-26T07:53:48;11.30;;;7.10;;
8281;SDS011;25606;42.686;23.136;2022-12-26T07:56:16;61.07;;;31.63;;
8281;SDS011;25606;42.686;23.136;2022-12-26T07:58:46;9.17;;;6.17;;
8281;SDS011;25606;42.686;23.136;2022-12-26T08:01:15;7.00;;;6.00;;
8281;SDS011;25606;42.686;23.136;2022-12-26T08:03:42;7.90;;;5.33;;
8281;SDS011;25606;42.686;23.136;2022-12-26T08:06:13;6.57;;;5.20;;
8281;SDS011;25606;42.686;23.136;2022-12-26T08:08:40;6.97;;;5.53;;
8281;SDS011;25606;42.686;23.136;2022-12-26T08:11:07;7.80;;;5.80;;
8281;SDS011;25606;42.686;23.136;2022-12-26T08:13:35;8.17;;;6.00;;
8281;SDS011;25606;42.686;23.136;2022-12-26T08:16:03;18.03;;;13.43;;
8281;SDS011;25606;42.686;23.136;2022-12-26T08:18:33;12.27;;;8.57;;
8281;SDS011;25606;42.686;23.136;2022-12-26T08:21:00;14.87;;;9.37;;
8281;SDS011;25606;42.686;23.136;2022-12-26T08:23:28;11.13;;;7.07;;
8281;SDS011;25606;42.686;23.136;2022-12-26T08:25:55;8.07;;;6.60;;
8281;SDS011;25606;42.686;23.136;2022-12-26T08:28:22;8.10;;;6.47;;
8281;SDS011;25606;42.686;23.136;2022-12-26T08:30:50;10.83;;;8.40;;
8281;SDS011;25606;42.686;23.136;2022-12-26T08:33:17;8.50;;;7.30;;
8281;SDS011;25606;42.686;23.136;2022-12-26T08:35:47;15.00;;;9.43;;
8281;SDS011;25606;42.686;23.136;2022-12-26T08:38:14;14.83;;;9.83;;
8281;SDS011;25606;42.686;23.136;2022-12-26T08:40:42;11.73;;;8.80;;
8281;SDS011;25606;42.686;23.136;2022-12-26T08:43:10;12.70;;;8.70;;
8281;SDS011;25606;42.686;23.136;2022-12-26T08:45:38;13.80;;;9.27;;
8281;SDS011;25606;42.686;23.136;2022-12-26T08:48:05;10.83;;;8.83;;
8281;SDS011;25606;42.686;23.136;2022-12-26T08:50:32;13.67;;;10.83;;
8281;SDS011;25606;42.686;23.136;2022-12-26T08:53:01;17.13;;;11.43;;
8281;SDS011;25606;42.686;23.136;2022-12-26T08:55:28;17.60;;;11.63;;
8281;SDS011;25606;42.686;23.136;2022-12-26T08:57:56;13.27;;;10.03;;
8281;SDS011;25606;42.686;23.136;2022-12-26T09:00:23;12.33;;;8.40;;
8281;SDS011;25606;42.686;23.136;2022-12-26T09:02:50;15.87;;;11.87;;
8281;SDS011;25606;42.686;23.136;2022-12-26T09:05:18;10.03;;;7.60;;
8281;SDS011;25606;42.686;23.136;2022-12-26T09:07:45;10.57;;;6.37;;
8281;SDS011;25606;42.686;23.136;2022-12-26T09:10:14;11.77;;;6.83;;
8281;SDS011;25606;42.686;23.136;2022-12-26T09:12:41;11.33;;;9.13;;
8281;SDS011;25606;42.686;23.136;2022-12-26T09:15:09;9.50;;;6.10;;
8281;SDS011;25606;42.686;23.136;2022-12-26T09:17:36;9.60;;;5.73;;
8281;SDS011;25606;42.686;23.136;2022-12-26T09:20:04;6.90;;;4.87;;
8281;SDS011;25606;42.686;23.136;2022-12-26T09:22:31;7.80;;;4.00;;
8281;SDS011;25606;42.686;23.136;2022-12-26T09:25:18;6.87;;;4.50;;
8281;SDS011;25606;42.686;23.136;2022-12-26T09:27:46;10.40;;;6.83;;
8281;SDS011;25606;42.686;23.136;2022-12-26T09:30:14;6.67;;;5.27;;
8281;SDS011;25606;42.686;23.136;2022-12-26T09:32:42;10.83;;;7.77;;
8281;SDS011;25606;42.686;23.136;2022-12-26T09:35:10;11.00;;;8.10;;
8281;SDS011;25606;42.686;23.136;2022-12-26T09:37:37;13.27;;;9.70;;
8281;SDS011;25606;42.686;23.136;2022-12-26T09:40:17;12.23;;;8.77;;
8281;SDS011;25606;42.686;23.136;2022-12-26T09:42:49;14.20;;;10.27;;
8281;SDS011;25606;42.686;23.136;2022-12-26T09:45:18;13.17;;;9.70;;
8281;SDS011;25606;42.686;23.136;2022-12-26T09:47:50;17.07;;;11.67;;
8281;SDS011;25606;42.686;23.136;2022-12-26T09:50:23;43.03;;;33.43;;
8281;SDS011;25606;42.686;23.136;2022-12-26T09:52:52;26.03;;;20.70;;
8281;SDS011;25606;42.686;23.136;2022-12-26T09:55:25;18.80;;;14.87;;
8281;SDS011;25606;42.686;23.136;2022-12-26T09:57:55;16.67;;;12.93;;
8281;SDS011;25606;42.686;23.136;2022-12-26T10:00:29;17.33;;;12.47;;
8281;SDS011;25606;42.686;23.136;2022-12-26T10:02:59;20.83;;;13.40;;
8281;SDS011;25606;42.686;23.136;2022-12-26T10:05:27;19.67;;;15.00;;
8281;SDS011;25606;42.686;23.136;2022-12-26T10:07:58;23.57;;;17.53;;
8281;SDS011;25606;42.686;23.136;2022-12-26T10:10:28;15.33;;;11.63;;
8281;SDS011;25606;42.686;23.136;2022-12-26T10:13:03;15.10;;;12.77;;
8281;SDS011;25606;42.686;23.136;2022-12-26T10:15:38;17.33;;;11.93;;
8281;SDS011;25606;42.686;23.136;2022-12-26T10:18:17;14.47;;;10.20;;
8281;SDS011;25606;42.686;23.136;2022-12-26T10:20:53;25.10;;;17.00;;
8281;SDS011;25606;42.686;23.136;2022-12-26T10:23:29;15.20;;;11.93;;
8281;SDS011;25606;42.686;23.136;2022-12-26T10:25:58;13.63;;;11.60;;
8281;SDS011;25606;42.686;23.136;2022-12-26T10:28:31;13.67;;;9.90;;
8281;SDS011;25606;42.686;23.136;2022-12-26T10:31:02;13.23;;;9.97;;
8281;SDS011;25606;42.686;23.136;2022-12-26T10:33:37;14.33;;;9.30;;
8281;SDS011;25606;42.686;23.136;2022-12-26T10:36:15;9.80;;;7.83;;
8281;SDS011;25606;42.686;23.136;2022-12-26T10:38:43;14.33;;;8.90;;
8281;SDS011;25606;42.686;23.136;2022-12-26T10:41:12;9.87;;;7.73;;
8281;SDS011;25606;42.686;23.136;2022-12-26T10:43:44;12.47;;;7.93;;
8281;SDS011;25606;42.686;23.136;2022-12-26T10:46:16;12.57;;;7.80;;
8281;SDS011;25606;42.686;23.136;2022-12-26T10:48:47;5.63;;;3.80;;
8281;SDS011;25606;42.686;23.136;2022-12-26T10:51:16;11.67;;;8.57;;
8281;SDS011;25606;42.686;23.136;2022-12-26T10:53:45;10.87;;;7.47;;
8281;SDS011;25606;42.686;23.136;2022-12-26T10:56:14;5.47;;;3.93;;
8281;SDS011;25606;42.686;23.136;2022-12-26T10:58:45;7.53;;;4.97;;
8281;SDS011;25606;42.686;23.136;2022-12-26T11:01:30;8.07;;;6.33;;
8281;SDS011;25606;42.686;23.136;2022-12-26T11:03:58;7.00;;;4.83;;
8281;SDS011;25606;42.686;23.136;2022-12-26T11:06:27;7.20;;;5.23;;
8281;SDS011;25606;42.686;23.136;2022-12-26T11:09:00;12.00;;;9.80;;
8281;SDS011;25606;42.686;23.136;2022-12-26T11:11:29;9.13;;;6.30;;
8281;SDS011;25606;42.686;23.136;2022-12-26T11:14:30;8.03;;;5.67;;
8281;SDS011;25606;42.686;23.136;2022-12-26T11:17:00;10.03;;;8.07;;
8281;SDS011;25606;42.686;23.136;2022-12-26T11:19:30;11.80;;;9.70;;
8281;SDS011;25606;42.686;23.136;2022-12-26T11:22:22;33.10;;;26.23;;
8281;SDS011;25606;42.686;23.136;2022-12-26T11:25:11;24.10;;;18.37;;
8281;SDS011;25606;42.686;23.136;2022-12-26T11:27:48;26.23;;;19.73;;
8281;SDS011;25606;42.686;23.136;2022-12-26T11:30:29;17.87;;;13.53;;
8281;SDS011;25606;42.686;23.136;2022-12-26T11:33:06;21.30;;;17.43;;
8281;SDS011;25606;42.686;23.136;2022-12-26T11:35:34;26.97;;;21.40;;
8281;SDS011;25606;42.686;23.136;2022-12-26T11:38:05;14.10;;;10.30;;
8281;SDS011;25606;42.686;23.136;2022-12-26T11:40:37;11.33;;;9.03;;
8281;SDS011;25606;42.686;23.136;2022-12-26T11:43:29;12.87;;;9.87;;
8281;SDS011;25606;42.686;23.136;2022-12-26T11:45:59;14.70;;;11.10;;
8281;SDS011;25606;42.686;23.136;2022-12-26T11:48:28;20.40;;;15.67;;
8281;SDS011;25606;42.686;23.136;2022-12-26T11:50:55;18.30;;;13.57;;
8281;SDS011;25606;42.686;23.136;2022-12-26T11:53:22;13.67;;;9.53;;
8281;SDS011;25606;42.686;23.136;2022-12-26T11:55:56;14.13;;;9.03;;
8281;SDS011;25606;42.686;23.136;2022-12-26T11:58:24;24.37;;;16.23;;
8281;SDS011;25606;42.686;23.136;2022-12-26T12:01:05;25.80;;;15.37;;
8281;SDS011;25606;42.686;23.136;2022-12-26T12:03:33;24.50;;;15.27;;
8281;SDS011;25606;42.686;23.136;2022-12-26T12:06:02;17.00;;;10.77;;
8281;SDS011;25606;42.686;23.136;2022-12-26T12:08:36;11.93;;;8.37;;
8281;SDS011;25606;42.686;23.136;2022-12-26T12:11:08;9.87;;;8.07;;
8281;SDS011;25606;42.686;23.136;2022-12-26T12:13:45;11.40;;;8.83;;
8281;SDS011;25606;42.686;23.136;2022-12-26T12:16:20;10.53;;;8.77;;
8281;SDS011;25606;42.686;23.136;2022-12-26T12:18:53;10.73;;;7.40;;
8281;SDS011;25606;42.686;23.136;2022-12-26T12:21:24;9.30;;;6.80;;
8281;SDS011;25606;42.686;23.136;2022-12-26T12:23:58;10.20;;;7.47;;
8281;SDS011;25606;42.686;23.136;2022-12-26T12:26:29;9.73;;;7.30;;
8281;SDS011;25606;42.686;23.136;2022-12-26T12:29:09;8.87;;;6.60;;
8281;SDS011;25606;42.686;23.136;2022-12-26T12:31:44;8.17;;;6.10;;
8281;SDS011;25606;42.686;23.136;2022-12-26T12:34:16;10.93;;;7.17;;
8281;SDS011;25606;42.686;23.136;2022-12-26T12:36:49;8.60;;;6.73;;
8281;SDS011;25606;42.686;23.136;2022-12-26T12:39:18;12.37;;;7.27;;
8281;SDS011;25606;42.686;23.136;2022-12-26T12:41:57;12.73;;;7.90;;
8281;SDS011;25606;42.686;23.136;2022-12-26T12:44:29;11.70;;;7.47;;
8281;SDS011;25606;42.686;23.136;2022-12-26T12:47:02;10.53;;;6.93;;
8281;SDS011;25606;42.686;23.136;2022-12-26T12:49:36;10.30;;;7.30;;
8281;SDS011;25606;42.686;23.136;2022-12-26T12:52:07;8.43;;;6.30;;
8281;SDS011;25606;42.686;23.136;2022-12-26T12:57:20;11.13;;;7.53;;
8281;SDS011;25606;42.686;23.136;2022-12-26T12:59:55;11.20;;;7.40;;
8281;SDS011;25606;42.686;23.136;2022-12-26T13:02:28;10.40;;;7.27;;
8281;SDS011;25606;42.686;23.136;2022-12-26T13:05:01;13.30;;;8.97;;
8281;SDS011;25606;42.686;23.136;2022-12-26T13:07:30;16.70;;;9.00;;
8281;SDS011;25606;42.686;23.136;2022-12-26T13:09:59;13.93;;;9.63;;
8281;SDS011;25606;42.686;23.136;2022-12-26T13:12:28;15.50;;;9.73;;
8281;SDS011;25606;42.686;23.136;2022-12-26T13:14:59;14.03;;;8.70;;
8281;SDS011;25606;42.686;23.136;2022-12-26T13:17:30;13.43;;;8.80;;
8281;SDS011;25606;42.686;23.136;2022-12-26T13:19:59;14.83;;;9.40;;
8281;SDS011;25606;42.686;23.136;2022-12-26T13:22:28;15.67;;;9.53;;
8281;SDS011;25606;42.686;23.136;2022-12-26T13:25:17;12.87;;;9.07;;
8281;SDS011;25606;42.686;23.136;2022-12-26T13:27:44;15.77;;;9.13;;
8281;SDS011;25606;42.686;23.136;2022-12-26T13:30:14;12.27;;;8.90;;
8281;SDS011;25606;42.686;23.136;2022-12-26T13:32:43;11.07;;;7.40;;
8281;SDS011;25606;42.686;23.136;2022-12-26T13:37:55;10.77;;;6.33;;
8281;SDS011;25606;42.686;23.136;2022-12-26T13:40:23;6.43;;;5.10;;
8281;SDS011;25606;42.686;23.136;2022-12-26T13:42:52;5.30;;;4.77;;
8281;SDS011;25606;42.686;23.136;2022-12-26T13:53:57;9.87;;;7.47;;
8281;SDS011;25606;42.686;23.136;2022-12-26T13:59:09;9.53;;;5.83;;
8281;SDS011;25606;42.686;23.136;2022-12-26T14:01:42;9.07;;;5.43;;
8281;SDS011;25606;42.686;23.136;2022-12-26T14:04:21;6.97;;;4.87;;
8281;SDS011;25606;42.686;23.136;2022-12-26T14:07:02;9.20;;;5.27;;
8281;SDS011;25606;42.686;23.136;2022-12-26T14:09:40;7.30;;;3.80;;
8281;SDS011;25606;42.686;23.136;2022-12-26T14:12:18;9.67;;;7.30;;
8281;SDS011;25606;42.686;23.136;2022-12-26T14:14:53;4.80;;;3.73;;
8281;SDS011;25606;42.686;23.136;2022-12-26T14:17:25;3.33;;;3.03;;
8281;SDS011;25606;42.686;23.136;2022-12-26T14:20:02;5.63;;;4.87;;
8281;SDS011;25606;42.686;23.136;2022-12-26T14:22:35;11.50;;;8.10;;
8281;SDS011;25606;42.686;23.136;2022-12-26T14:25:12;13.43;;;10.07;;
8281;SDS011;25606;42.686;23.136;2022-12-26T14:27:46;16.70;;;12.23;;
8281;SDS011;25606;42.686;23.136;2022-12-26T14:30:18;16.77;;;11.10;;
8281;SDS011;25606;42.686;23.136;2022-12-26T14:35:34;19.47;;;13.20;;
8281;SDS011;25606;42.686;23.136;2022-12-26T14:38:08;18.17;;;13.60;;
8281;SDS011;25606;42.686;23.136;2022-12-26T14:40:55;18.07;;;13.37;;
8281;SDS011;25606;42.686;23.136;2022-12-26T14:43:33;16.13;;;12.13;;
8281;SDS011;25606;42.686;23.136;2022-12-26T14:46:00;16.27;;;11.67;;
8281;SDS011;25606;42.686;23.136;2022-12-26T14:51:37;18.83;;;12.63;;
8281;SDS011;25606;42.686;23.136;2022-12-26T14:54:14;21.27;;;12.93;;
8281;SDS011;25606;42.686;23.136;2022-12-26T14:56:50;20.53;;;13.70;;
8281;SDS011;25606;42.686;23.136;2022-12-26T14:59:22;20.10;;;14.23;;
8281;SDS011;25606;42.686;23.136;2022-12-26T15:01:59;22.70;;;14.97;;
8281;SDS011;25606;42.686;23.136;2022-12-26T15:04:34;12.33;;;10.63;;
8281;SDS011;25606;42.686;23.136;2022-12-26T15:07:16;14.70;;;10.03;;
8281;SDS011;25606;42.686;23.136;2022-12-26T15:10:08;7.23;;;5.03;;
8281;SDS011;25606;42.686;23.136;2022-12-26T15:12:52;6.50;;;4.30;;
8281;SDS011;25606;42.686;23.136;2022-12-26T15:15:33;4.23;;;2.63;;
8281;SDS011;25606;42.686;23.136;2022-12-26T15:18:09;3.23;;;1.77;;
8281;SDS011;25606;42.686;23.136;2022-12-26T15:20:55;1.97;;;1.30;;
8281;SDS011;25606;42.686;23.136;2022-12-26T15:23:39;2.03;;;1.60;;
8281;SDS011;25606;42.686;23.136;2022-12-26T15:29:11;1.90;;;1.43;;
8281;SDS011;25606;42.686;23.136;2022-12-26T15:31:46;2.53;;;1.67;;
8281;SDS011;25606;42.686;23.136;2022-12-26T15:34:36;1.60;;;1.50;;
8281;SDS011;25606;42.686;23.136;2022-12-26T15:37:08;2.37;;;1.70;;
8281;SDS011;25606;42.686;23.136;2022-12-26T15:39:46;2.27;;;1.80;;
8281;SDS011;25606;42.686;23.136;2022-12-26T15:42:20;2.33;;;1.53;;
8281;SDS011;25606;42.686;23.136;2022-12-26T15:44:58;2.63;;;1.70;;
8281;SDS011;25606;42.686;23.136;2022-12-26T15:47:33;2.90;;;1.83;;
8281;SDS011;25606;42.686;23.136;2022-12-26T15:50:14;2.60;;;2.20;;